createdAt,value
2018-07-16T00:00:30.719Z,17.86
2018-07-16T00:01:30.710Z,17.86
2018-07-16T00:02:30.706Z,17.78
2018-07-16T00:03:30.446Z,17.86
2018-07-16T00:04:30.442Z,17.84
2018-07-16T00:05:30.693Z,17.74
2018-07-16T00:06:30.687Z,17.77
2018-07-16T00:07:30.178Z,17.77
2018-07-16T00:08:30.678Z,17.77
2018-07-16T00:09:30.675Z,17.82
2018-07-16T00:10:30.671Z,17.77
2018-07-16T00:11:30.420Z,17.75
2018-07-16T00:12:30.674Z,17.78
2018-07-16T00:13:30.665Z,17.75
2018-07-16T00:14:30.466Z,17.71
2018-07-16T00:15:30.650Z,17.74
2018-07-16T00:16:30.398Z,17.81
2018-07-16T00:17:30.644Z,17.78
2018-07-16T00:18:30.638Z,17.79
2018-07-16T00:19:30.653Z,17.72
2018-07-16T00:20:30.630Z,17.72
2018-07-16T00:21:30.632Z,17.75
2018-07-16T00:22:30.370Z,17.74
2018-07-16T00:23:30.624Z,17.71
2018-07-16T00:24:30.363Z,17.71
2018-07-16T00:25:30.611Z,17.68
2018-07-16T00:26:30.605Z,17.64
2018-07-16T00:27:30.610Z,17.68
2018-07-16T00:28:30.597Z,17.63
2018-07-16T00:29:30.599Z,17.64
2018-07-16T00:30:30.597Z,17.58
2018-07-16T00:31:30.597Z,17.62
2018-07-16T00:32:30.335Z,17.58
2018-07-16T00:33:30.579Z,17.59
2018-07-16T00:34:30.579Z,17.55
2018-07-16T00:35:30.573Z,17.56
2018-07-16T00:36:30.563Z,17.51
2018-07-16T00:37:30.575Z,17.59
2018-07-16T00:38:30.565Z,17.43
2018-07-16T00:39:30.300Z,17.37
2018-07-16T00:40:30.552Z,17.37
2018-07-16T00:41:30.543Z,17.4
2018-07-16T00:42:30.553Z,17.37
2018-07-16T00:43:30.031Z,17.28
2018-07-16T00:44:30.518Z,17.22
2018-07-16T00:45:30.275Z,17.22
2018-07-16T00:46:30.524Z,17.25
2018-07-16T00:47:30.524Z,17.08
2018-07-16T00:48:30.519Z,17.07
2018-07-16T00:49:30.529Z,17.16
2018-07-16T00:50:30.505Z,17.06
2018-07-16T00:51:30.502Z,17.06
2018-07-16T00:52:30.499Z,17.06
2018-07-16T00:53:30.494Z,17.03
2018-07-16T00:54:30.236Z,16.94
2018-07-16T00:55:30.483Z,16.97
2018-07-16T00:56:30.380Z,16.97
2018-07-16T00:57:30.259Z,16.93
2018-07-16T00:58:30.509Z,16.98
2018-07-16T00:59:30.474Z,16.85
2018-07-16T01:00:30.465Z,16.82
2018-07-16T01:01:30.463Z,16.82
2018-07-16T01:02:30.454Z,16.83
2018-07-16T01:03:30.449Z,16.86
2018-07-16T01:04:30.451Z,16.75
2018-07-16T01:05:30.447Z,16.86
2018-07-16T01:06:30.438Z,16.79
2018-07-16T01:07:30.433Z,16.76
2018-07-16T01:08:30.433Z,16.75
2018-07-16T01:09:30.173Z,16.7
2018-07-16T01:10:30.426Z,16.68
2018-07-16T01:11:30.421Z,16.68
2018-07-16T01:12:30.409Z,16.67
2018-07-16T01:13:30.404Z,16.66
2018-07-16T01:14:30.400Z,16.52
2018-07-16T01:15:30.398Z,16.57
2018-07-16T01:16:30.140Z,16.58
2018-07-16T01:17:30.388Z,16.56
2018-07-16T01:18:30.131Z,16.53
2018-07-16T01:19:30.126Z,16.52
2018-07-16T01:20:30.380Z,16.53
2018-07-16T01:21:30.370Z,16.5
2018-07-16T01:22:30.365Z,16.5
2018-07-16T01:23:30.359Z,16.43
2018-07-16T01:24:30.106Z,16.45
2018-07-16T01:25:30.105Z,16.45
2018-07-16T01:26:30.346Z,16.39
2018-07-16T01:27:30.341Z,16.41
2018-07-16T01:28:30.085Z,16.39
2018-07-16T01:29:30.080Z,16.43
2018-07-16T01:30:30.327Z,16.34
2018-07-16T01:31:30.322Z,16.35
2018-07-16T01:32:30.320Z,16.35
2018-07-16T01:33:30.316Z,16.33
2018-07-16T01:34:30.307Z,16.28
2018-07-16T01:35:30.305Z,16.33
2018-07-16T01:36:30.301Z,16.35
2018-07-16T01:37:30.297Z,16.33
2018-07-16T01:38:30.292Z,16.38
2018-07-16T01:39:30.038Z,16.24
2018-07-16T01:40:29.777Z,16.25
2018-07-16T01:41:29.774Z,16.28
2018-07-16T01:42:29.766Z,16.25
2018-07-16T01:43:30.019Z,16.23
2018-07-16T01:44:30.261Z,16.28
2018-07-16T01:45:30.257Z,16.25
2018-07-16T01:46:29.999Z,16.2
2018-07-16T01:47:29.996Z,16.08
2018-07-16T01:48:30.246Z,16.12
2018-07-16T01:49:29.984Z,16.17
2018-07-16T01:50:30.236Z,16.08
2018-07-16T01:51:29.976Z,16.14
2018-07-16T01:52:30.223Z,16.2
2018-07-16T01:53:29.967Z,16.12
2018-07-16T01:54:29.961Z,16.08
2018-07-16T01:55:29.962Z,16.11
2018-07-16T01:56:30.204Z,16.11
2018-07-16T01:57:30.200Z,16.05
2018-07-16T01:58:30.196Z,15.97
2018-07-16T01:59:29.942Z,15.94
2018-07-16T02:00:30.187Z,15.96
2018-07-16T02:01:30.192Z,15.97
2018-07-16T02:02:30.175Z,16
2018-07-16T02:03:30.171Z,15.96
2018-07-16T02:04:30.182Z,16.01
2018-07-16T02:05:29.911Z,15.96
2018-07-16T02:06:29.906Z,16.01
2018-07-16T02:07:30.152Z,15.97
2018-07-16T02:08:30.157Z,16
2018-07-16T02:09:30.167Z,16.07
2018-07-16T02:10:30.140Z,16
2018-07-16T02:11:29.881Z,16.04
2018-07-16T02:12:29.874Z,15.96
2018-07-16T02:13:30.131Z,15.9
2018-07-16T02:14:30.172Z,15.96
2018-07-16T02:15:30.120Z,15.93
2018-07-16T02:16:30.123Z,16
2018-07-16T02:17:30.109Z,16
2018-07-16T02:18:30.098Z,15.96
2018-07-16T02:19:29.856Z,16
2018-07-16T02:20:30.092Z,15.92
2018-07-16T02:21:30.084Z,15.92
2018-07-16T02:22:30.078Z,15.83
2018-07-16T02:23:30.077Z,15.94
2018-07-16T02:24:30.068Z,15.96
2018-07-16T02:25:29.809Z,15.86
2018-07-16T02:26:30.056Z,15.86
2018-07-16T02:27:29.801Z,15.9
2018-07-16T02:28:29.798Z,15.83
2018-07-16T02:29:30.041Z,15.83
2018-07-16T02:30:30.040Z,15.82
2018-07-16T02:31:30.036Z,15.84
2018-07-16T02:32:30.032Z,15.84
2018-07-16T02:33:30.033Z,15.83
2018-07-16T02:34:30.057Z,15.72
2018-07-16T02:35:30.019Z,15.83
2018-07-16T02:36:30.024Z,15.76
2018-07-16T02:37:30.027Z,15.84
2018-07-16T02:38:30.009Z,15.83
2018-07-16T02:39:30.001Z,15.84
2018-07-16T02:40:29.990Z,15.84
2018-07-16T02:41:29.989Z,15.86
2018-07-16T02:42:29.981Z,15.82
2018-07-16T02:43:29.983Z,15.83
2018-07-16T02:44:30.001Z,15.72
2018-07-16T02:45:29.966Z,15.76
2018-07-16T02:46:29.980Z,15.76
2018-07-16T02:47:29.953Z,15.75
2018-07-16T02:48:29.962Z,15.75
2018-07-16T02:49:29.959Z,15.74
2018-07-16T02:50:29.944Z,15.75
2018-07-16T02:51:29.937Z,15.71
2018-07-16T02:52:29.685Z,15.78
2018-07-16T02:53:29.673Z,15.78
2018-07-16T02:54:29.927Z,15.78
2018-07-16T02:55:29.916Z,15.72
2018-07-16T02:56:29.940Z,15.75
2018-07-16T02:57:29.652Z,15.65
2018-07-16T02:58:29.653Z,15.72
2018-07-16T02:59:29.901Z,15.67
2018-07-16T03:00:29.889Z,15.68
2018-07-16T03:01:29.887Z,15.74
2018-07-16T03:02:29.877Z,15.71
2018-07-16T03:03:29.876Z,15.74
2018-07-16T03:04:29.911Z,15.67
2018-07-16T03:05:29.871Z,15.67
2018-07-16T03:06:29.868Z,15.67
2018-07-16T03:07:29.872Z,15.65
2018-07-16T03:08:29.849Z,15.75
2018-07-16T03:09:29.344Z,15.78
2018-07-16T03:10:29.847Z,15.76
2018-07-16T03:11:29.835Z,15.78
2018-07-16T03:12:29.839Z,15.74
2018-07-16T03:13:29.826Z,15.75
2018-07-16T03:14:29.825Z,15.74
2018-07-16T03:15:29.812Z,15.75
2018-07-16T03:16:29.560Z,15.76
2018-07-16T03:17:29.810Z,15.8
2018-07-16T03:18:29.801Z,15.76
2018-07-16T03:19:29.543Z,15.86
2018-07-16T03:20:29.536Z,15.72
2018-07-16T03:21:29.531Z,15.84
2018-07-16T03:22:29.534Z,15.84
2018-07-16T03:23:29.778Z,15.89
2018-07-16T03:24:29.769Z,15.83
2018-07-16T03:25:29.769Z,15.84
2018-07-16T03:26:29.505Z,15.87
2018-07-16T03:27:29.508Z,15.82
2018-07-16T03:28:29.751Z,15.89
2018-07-16T03:29:29.761Z,15.89
2018-07-16T03:30:29.495Z,15.83
2018-07-16T03:31:29.737Z,15.89
2018-07-16T03:32:29.734Z,15.93
2018-07-16T03:33:29.721Z,15.97
2018-07-16T03:34:29.720Z,16.01
2018-07-16T03:35:29.714Z,15.93
2018-07-16T03:36:29.711Z,15.96
2018-07-16T03:37:29.701Z,15.86
2018-07-16T03:38:29.445Z,16
2018-07-16T03:39:29.443Z,15.94
2018-07-16T03:40:29.686Z,16.05
2018-07-16T03:41:29.431Z,16.04
2018-07-16T03:42:29.677Z,16.15
2018-07-16T03:43:29.418Z,16.33
2018-07-16T03:44:29.666Z,16.43
2018-07-16T03:45:29.413Z,16.61
2018-07-16T03:46:29.406Z,16.79
2018-07-16T03:47:29.401Z,16.93
2018-07-16T03:48:29.648Z,17.18
2018-07-16T03:49:29.643Z,17.26
2018-07-16T03:50:29.643Z,17.54
2018-07-16T03:51:29.635Z,17.84
2018-07-16T03:52:29.632Z,18.12
2018-07-16T03:53:29.374Z,18.26
2018-07-16T03:54:29.517Z,18.57
2018-07-16T03:55:29.369Z,18.81
2018-07-16T03:56:29.621Z,19.16
2018-07-16T03:57:29.362Z,19.4
2018-07-16T03:58:29.369Z,19.76
2018-07-16T03:59:29.101Z,19.95
2018-07-16T04:00:29.602Z,20.14
2018-07-16T04:01:29.409Z,20.54
2018-07-16T04:02:29.622Z,20.76
2018-07-16T04:03:29.344Z,21.13
2018-07-16T04:04:29.090Z,21.29
2018-07-16T04:05:29.345Z,21.5
2018-07-16T04:06:29.588Z,21.84
2018-07-16T04:07:29.591Z,22.12
2018-07-16T04:08:29.335Z,22.43
2018-07-16T04:09:29.333Z,22.67
2018-07-16T04:10:29.336Z,22.91
2018-07-16T04:11:29.581Z,23.23
2018-07-16T04:12:29.333Z,23.5
2018-07-16T04:13:29.581Z,23.83
2018-07-16T04:14:29.840Z,24.1
2018-07-16T04:15:29.335Z,24.32
2018-07-16T04:16:29.332Z,24.58
2018-07-16T04:17:29.585Z,24.83
2018-07-16T04:18:29.334Z,25.1
2018-07-16T04:19:29.589Z,25.28
2018-07-16T04:20:29.591Z,25.61
2018-07-16T04:21:29.589Z,25.82
2018-07-16T04:22:29.597Z,26.1
2018-07-16T04:23:29.595Z,26.36
2018-07-16T04:24:29.596Z,26.57
2018-07-16T04:25:29.390Z,26.76
2018-07-16T04:26:29.599Z,26.99
2018-07-16T04:27:29.603Z,27.34
2018-07-16T04:28:29.605Z,27.43
2018-07-16T04:29:29.613Z,27.67
2018-07-16T04:30:29.637Z,28.03
2018-07-16T04:31:29.619Z,28.21
2018-07-16T04:32:29.371Z,28.48
2018-07-16T04:33:29.628Z,28.62
2018-07-16T04:34:29.638Z,28.92
2018-07-16T04:35:29.636Z,29.09
2018-07-16T04:36:29.642Z,29.27
2018-07-16T04:37:29.646Z,29.6
2018-07-16T04:38:29.399Z,29.73
2018-07-16T04:39:29.408Z,29.8
2018-07-16T04:40:29.163Z,30.05
2018-07-16T04:41:29.672Z,30.24
2018-07-16T04:42:29.676Z,30.39
2018-07-16T04:43:29.681Z,30.53
2018-07-16T04:44:29.690Z,30.77
2018-07-16T04:45:29.696Z,30.94
2018-07-16T04:46:29.703Z,31.09
2018-07-16T04:47:29.711Z,31.13
2018-07-16T04:48:29.716Z,31.19
2018-07-16T04:49:29.723Z,31.25
2018-07-16T04:50:29.732Z,31.26
2018-07-16T04:51:29.788Z,31.48
2018-07-16T04:52:29.746Z,31.56
2018-07-16T04:53:29.755Z,31.68
2018-07-16T04:54:29.781Z,31.81
2018-07-16T04:55:29.519Z,31.92
2018-07-16T04:56:29.782Z,32.11
2018-07-16T04:57:29.790Z,32.33
2018-07-16T04:58:29.801Z,32.51
2018-07-16T04:59:29.826Z,32.74
2018-07-16T05:00:29.572Z,32.87
2018-07-16T05:01:29.834Z,33.04
2018-07-16T05:02:29.579Z,33.12
2018-07-16T05:03:29.592Z,33.29
2018-07-16T05:04:29.874Z,33.45
2018-07-16T05:05:29.864Z,33.57
2018-07-16T05:06:29.871Z,33.73
2018-07-16T05:07:29.630Z,33.97
2018-07-16T05:08:29.634Z,34
2018-07-16T05:09:29.933Z,34.13
2018-07-16T05:10:29.962Z,34.24
2018-07-16T05:11:29.915Z,34.4
2018-07-16T05:12:29.931Z,34.39
2018-07-16T05:13:29.935Z,34.46
2018-07-16T05:14:29.985Z,34.47
2018-07-16T05:15:29.974Z,34.42
2018-07-16T05:16:29.715Z,34.27
2018-07-16T05:17:29.978Z,34.21
2018-07-16T05:18:30.735Z,34.19
2018-07-16T05:19:29.749Z,34.4
2018-07-16T05:20:30.014Z,34.56
2018-07-16T05:21:30.025Z,34.8
2018-07-16T05:22:30.050Z,34.87
2018-07-16T05:23:30.049Z,34.96
2018-07-16T05:24:30.060Z,35.16
2018-07-16T05:25:30.073Z,35.28
2018-07-16T05:26:29.821Z,35.43
2018-07-16T05:27:30.094Z,35.5
2018-07-16T05:28:29.843Z,35.65
2018-07-16T05:29:29.603Z,35.81
2018-07-16T05:30:30.118Z,35.92
2018-07-16T05:31:30.336Z,36.07
2018-07-16T05:32:31.094Z,36.15
2018-07-16T05:33:30.162Z,36.22
2018-07-16T05:34:30.167Z,36.37
2018-07-16T05:35:30.176Z,36.39
2018-07-16T05:36:30.193Z,36.37
2018-07-16T05:37:29.955Z,36.35
2018-07-16T05:38:30.212Z,36.32
2018-07-16T05:39:30.232Z,36.38
2018-07-16T05:40:30.235Z,36.34
2018-07-16T05:41:30.253Z,36.27
2018-07-16T05:42:30.269Z,35.92
2018-07-16T05:43:30.280Z,35.71
2018-07-16T05:44:30.296Z,35.28
2018-07-16T05:45:30.306Z,34.81
2018-07-16T05:46:30.314Z,34.37
2018-07-16T05:47:30.327Z,34.17
2018-07-16T05:48:31.355Z,34.08
2018-07-16T05:49:30.357Z,34.15
2018-07-16T05:50:30.365Z,34.37
2018-07-16T05:51:30.120Z,34.56
2018-07-16T05:52:30.393Z,34.77
2018-07-16T05:53:30.394Z,34.82
2018-07-16T05:54:30.408Z,35
2018-07-16T05:55:30.428Z,34.96
2018-07-16T05:56:29.927Z,34.94
2018-07-16T05:57:30.447Z,34.91
2018-07-16T05:58:30.454Z,34.94
2018-07-16T05:59:31.227Z,34.78
2018-07-16T06:00:30.484Z,34.87
2018-07-16T06:01:30.501Z,34.69
2018-07-16T06:02:30.507Z,34.49
2018-07-16T06:03:30.517Z,34.42
2018-07-16T06:04:30.596Z,34.1
2018-07-16T06:05:30.546Z,34
2018-07-16T06:06:30.554Z,34.03
2018-07-16T06:07:30.315Z,34.08
2018-07-16T06:08:30.582Z,34.32
2018-07-16T06:09:30.340Z,34.54
2018-07-16T06:10:30.351Z,35.04
2018-07-16T06:11:30.116Z,35.21
2018-07-16T06:12:30.636Z,35.47
2018-07-16T06:13:30.639Z,35.68
2018-07-16T06:14:30.418Z,35.87
2018-07-16T06:15:30.668Z,35.97
2018-07-16T06:16:30.437Z,36.12
2018-07-16T06:17:30.446Z,36.27
2018-07-16T06:18:30.454Z,36.37
2018-07-16T06:19:30.718Z,36.39
2018-07-16T06:20:30.733Z,36.5
2018-07-16T06:21:30.495Z,36.54
2018-07-16T06:22:30.759Z,36.72
2018-07-16T06:23:30.777Z,36.75
2018-07-16T06:24:30.786Z,36.83
2018-07-16T06:25:30.804Z,36.72
2018-07-16T06:26:30.814Z,36.65
2018-07-16T06:27:30.573Z,36.6
2018-07-16T06:28:30.840Z,36.46
2018-07-16T06:29:30.868Z,36.53
2018-07-16T06:30:30.621Z,36.53
2018-07-16T06:31:30.957Z,36.6
2018-07-16T06:32:31.237Z,36.57
2018-07-16T06:33:30.911Z,36.69
2018-07-16T06:34:30.933Z,36.76
2018-07-16T06:35:30.944Z,36.83
2018-07-16T06:36:30.953Z,37.06
2018-07-16T06:37:30.978Z,37.06
2018-07-16T06:38:30.729Z,37.22
2018-07-16T06:39:30.801Z,37.32
2018-07-16T06:40:31.661Z,37.47
2018-07-16T06:41:33.031Z,37.43
2018-07-16T06:42:31.046Z,37.51
2018-07-16T06:43:31.062Z,37.49
2018-07-16T06:44:30.816Z,37.51
2018-07-16T06:45:31.089Z,37.57
2018-07-16T06:46:30.853Z,37.4
2018-07-16T06:47:31.112Z,37.4
2018-07-16T06:48:31.144Z,37.44
2018-07-16T06:49:30.895Z,37.51
2018-07-16T06:50:30.907Z,37.37
2018-07-16T06:51:30.920Z,37.51
2018-07-16T06:52:31.192Z,37.46
2018-07-16T06:53:31.209Z,37.47
2018-07-16T06:54:30.966Z,37.57
2018-07-16T06:55:30.982Z,37.56
2018-07-16T06:56:31.252Z,37.51
2018-07-16T06:57:31.018Z,37.32
2018-07-16T06:58:31.296Z,37.44
2018-07-16T06:59:31.052Z,37.59
2018-07-16T07:00:31.324Z,37.84
2018-07-16T07:01:31.330Z,38.15
2018-07-16T07:02:31.098Z,38.44
2018-07-16T07:03:31.115Z,38.86
2018-07-16T07:04:31.135Z,39.1
2018-07-16T07:05:31.402Z,39.5
2018-07-16T07:06:31.435Z,39.64
2018-07-16T07:07:31.448Z,39.77
2018-07-16T07:08:31.468Z,39.97
2018-07-16T07:09:31.219Z,40.23
2018-07-16T07:10:31.493Z,40.23
2018-07-16T07:11:31.509Z,40.16
2018-07-16T07:12:31.521Z,40.1
2018-07-16T07:13:31.548Z,39.88
2018-07-16T07:14:31.304Z,39.45
2018-07-16T07:15:31.579Z,38.96
2018-07-16T07:16:31.591Z,38.74
2018-07-16T07:17:31.611Z,38.63
2018-07-16T07:18:31.631Z,38.69
2018-07-16T07:19:31.644Z,38.61
2018-07-16T07:20:31.663Z,38.49
2018-07-16T07:21:31.432Z,38.47
2018-07-16T07:22:31.694Z,38.47
2018-07-16T07:23:31.714Z,38.49
2018-07-16T07:24:31.476Z,38.57
2018-07-16T07:25:31.931Z,38.69
2018-07-16T07:26:31.773Z,38.71
2018-07-16T07:27:31.786Z,38.78
2018-07-16T07:28:31.798Z,38.86
2018-07-16T07:29:31.814Z,38.84
2018-07-16T07:30:31.866Z,38.96
2018-07-16T07:31:31.611Z,38.87
2018-07-16T07:32:31.871Z,38.79
2018-07-16T07:33:31.881Z,38.57
2018-07-16T07:34:31.898Z,38.26
2018-07-16T07:35:32.255Z,37.91
2018-07-16T07:36:31.935Z,37.39
2018-07-16T07:37:31.950Z,37.07
2018-07-16T07:38:31.965Z,36.95
2018-07-16T07:39:31.727Z,36.9
2018-07-16T07:40:31.996Z,37.05
2018-07-16T07:41:32.009Z,37.24
2018-07-16T07:42:32.025Z,37.4
2018-07-16T07:43:32.041Z,37.51
2018-07-16T07:44:32.064Z,37.56
2018-07-16T07:45:32.074Z,37.67
2018-07-16T07:46:32.089Z,37.49
2018-07-16T07:47:31.921Z,37.44
2018-07-16T07:48:32.143Z,37.4
2018-07-16T07:49:32.138Z,37.47
2018-07-16T07:50:32.182Z,37.6
2018-07-16T07:51:32.807Z,37.5
2018-07-16T07:52:32.218Z,37.6
2018-07-16T07:53:32.205Z,37.43
2018-07-16T07:54:32.737Z,37.47
2018-07-16T07:55:32.063Z,37.25
2018-07-16T07:56:32.252Z,37.02
2018-07-16T07:57:32.017Z,36.85
2018-07-16T07:58:32.293Z,36.73
2018-07-16T07:59:32.308Z,36.59
2018-07-16T08:00:32.323Z,36.53
2018-07-16T08:01:32.088Z,36.5
2018-07-16T08:02:32.357Z,36.53
2018-07-16T08:03:32.593Z,36.59
2018-07-16T08:04:32.134Z,36.73
2018-07-16T08:05:32.400Z,36.85
2018-07-16T08:06:32.414Z,36.94
2018-07-16T08:07:32.426Z,36.9
2018-07-16T08:08:32.191Z,36.9
2018-07-16T08:09:31.974Z,37
2018-07-16T08:10:32.817Z,37
2018-07-16T08:11:32.260Z,37.2
2018-07-16T08:12:32.525Z,37.25
2018-07-16T08:13:32.548Z,37.39
2018-07-16T08:14:32.585Z,37.44
2018-07-16T08:15:32.568Z,37.34
2018-07-16T08:16:32.620Z,37.2
2018-07-16T08:17:32.636Z,37.27
2018-07-16T08:18:33.446Z,37.02
2018-07-16T08:19:32.643Z,36.68
2018-07-16T08:20:32.653Z,36.37
2018-07-16T08:21:32.688Z,36.37
2018-07-16T08:22:32.419Z,36.32
2018-07-16T08:23:32.702Z,36.34
2018-07-16T08:24:32.468Z,36.23
2018-07-16T08:25:33.019Z,36.25
2018-07-16T08:26:33.286Z,36.31
2018-07-16T08:27:32.502Z,36.03
2018-07-16T08:28:32.768Z,35.77
2018-07-16T08:29:32.811Z,35.44
2018-07-16T08:30:32.805Z,35.31
2018-07-16T08:31:32.613Z,34.94
2018-07-16T08:32:32.857Z,34.7
2018-07-16T08:33:33.645Z,34.5
2018-07-16T08:34:32.912Z,34.25
2018-07-16T08:35:32.879Z,33.98
2018-07-16T08:36:32.914Z,34
2018-07-16T08:37:32.947Z,33.94
2018-07-16T08:38:32.667Z,33.94
2018-07-16T08:39:32.961Z,33.91
2018-07-16T08:40:32.998Z,34.06
2018-07-16T08:41:33.301Z,34.02
2018-07-16T08:42:32.732Z,34.06
2018-07-16T08:43:32.743Z,34.13
2018-07-16T08:44:32.758Z,34.17
2018-07-16T08:45:33.028Z,34.22
2018-07-16T08:46:33.069Z,34.39
2018-07-16T08:47:33.047Z,34.56
2018-07-16T08:48:33.062Z,34.75
2018-07-16T08:49:32.830Z,34.85
2018-07-16T08:50:33.094Z,35.06
2018-07-16T08:51:33.152Z,35.1
2018-07-16T08:52:32.866Z,35.1
2018-07-16T08:53:33.196Z,35.1
2018-07-16T08:54:33.156Z,34.94
2018-07-16T08:55:33.162Z,34.82
2018-07-16T08:56:33.180Z,34.61
2018-07-16T08:57:33.199Z,34.47
2018-07-16T08:58:33.211Z,34.42
2018-07-16T08:59:33.224Z,34.42
2018-07-16T09:00:32.984Z,34.25
2018-07-16T09:01:33.260Z,33.91
2018-07-16T09:02:33.266Z,33.56
2018-07-16T09:03:33.287Z,33.16
2018-07-16T09:04:33.295Z,32.66
2018-07-16T09:05:33.078Z,32.15
2018-07-16T09:06:33.319Z,31.72
2018-07-16T09:07:33.329Z,31.54
2018-07-16T09:08:33.352Z,31.32
2018-07-16T09:09:33.101Z,31.26
2018-07-16T09:10:34.642Z,31.2
2018-07-16T09:11:35.924Z,31.12
2018-07-16T09:12:33.384Z,31.07
2018-07-16T09:13:33.792Z,30.98
2018-07-16T09:14:33.409Z,30.92
2018-07-16T09:15:33.175Z,30.82
2018-07-16T09:16:33.421Z,30.72
2018-07-16T09:17:33.441Z,30.53
2018-07-16T09:18:33.185Z,30.45
2018-07-16T09:19:33.449Z,30.32
2018-07-16T09:20:33.462Z,30.23
2018-07-16T09:21:33.473Z,30.04
2018-07-16T09:22:33.479Z,30.01
2018-07-16T09:23:33.519Z,29.76
2018-07-16T09:24:33.490Z,29.61
2018-07-16T09:25:33.391Z,29.45
2018-07-16T09:26:33.511Z,29.24
2018-07-16T09:27:33.509Z,29.23
2018-07-16T09:28:33.517Z,29.06
2018-07-16T09:29:33.274Z,29.04
2018-07-16T09:30:33.531Z,28.95
2018-07-16T09:31:33.538Z,28.83
2018-07-16T09:32:33.048Z,28.59
2018-07-16T09:33:33.299Z,28.37
2018-07-16T09:34:33.565Z,28.31
2018-07-16T09:35:33.311Z,28.21
2018-07-16T09:36:33.315Z,28.06
2018-07-16T09:37:33.322Z,28.04
2018-07-16T09:38:33.724Z,28
2018-07-16T09:39:33.790Z,27.85
2018-07-16T09:40:33.585Z,27.69
2018-07-16T09:41:33.591Z,27.47
2018-07-16T09:42:33.347Z,27.36
2018-07-16T09:43:33.618Z,27.29
2018-07-16T09:44:34.062Z,27.24
2018-07-16T09:45:33.610Z,27.13
2018-07-16T09:46:33.615Z,27.02
2018-07-16T09:47:33.619Z,27
2018-07-16T09:48:33.624Z,26.91
2018-07-16T09:49:33.629Z,26.88
2018-07-16T09:50:33.638Z,26.84
2018-07-16T09:51:33.637Z,26.82
2018-07-16T09:52:33.625Z,26.73
2018-07-16T09:53:33.648Z,26.66
2018-07-16T09:54:33.396Z,26.7
2018-07-16T09:55:33.398Z,26.73
2018-07-16T09:56:33.556Z,26.69
2018-07-16T09:57:33.409Z,26.65
2018-07-16T09:58:33.669Z,26.67
2018-07-16T09:59:33.674Z,26.65
2018-07-16T10:00:33.704Z,26.55
2018-07-16T10:01:33.674Z,26.6
2018-07-16T10:02:33.427Z,26.51
2018-07-16T10:03:33.683Z,26.66
2018-07-16T10:04:33.701Z,26.6
2018-07-16T10:05:33.714Z,26.58
2018-07-16T10:06:33.703Z,26.6
2018-07-16T10:07:33.695Z,26.6
2018-07-16T10:08:33.629Z,26.7
2018-07-16T10:09:33.508Z,26.8
2018-07-16T10:10:33.812Z,26.82
2018-07-16T10:11:33.485Z,26.8
2018-07-16T10:12:33.460Z,26.73
2018-07-16T10:13:33.712Z,26.73
2018-07-16T10:14:33.732Z,26.65
2018-07-16T10:15:33.731Z,26.63
2018-07-16T10:16:33.724Z,26.75
2018-07-16T10:17:33.725Z,26.73
2018-07-16T10:18:33.725Z,26.67
2018-07-16T10:19:33.732Z,26.82
2018-07-16T10:20:34.046Z,26.75
2018-07-16T10:21:33.739Z,26.77
2018-07-16T10:22:33.502Z,26.87
2018-07-16T10:23:33.741Z,26.88
2018-07-16T10:24:33.755Z,26.99
2018-07-16T10:25:33.497Z,27
2018-07-16T10:26:33.779Z,27.04
2018-07-16T10:27:33.768Z,27.14
2018-07-16T10:28:33.504Z,27.07
2018-07-16T10:29:33.758Z,27.13
2018-07-16T10:30:33.510Z,27.17
2018-07-16T10:31:33.766Z,27.1
2018-07-16T10:32:33.521Z,27.03
2018-07-16T10:33:33.774Z,27.04
2018-07-16T10:34:33.789Z,27.09
2018-07-16T10:35:33.805Z,27
2018-07-16T10:36:33.792Z,27.04
2018-07-16T10:37:33.532Z,27
2018-07-16T10:38:33.808Z,27.09
2018-07-16T10:39:34.198Z,27.17
2018-07-16T10:40:33.811Z,27.21
2018-07-16T10:41:33.795Z,27.31
2018-07-16T10:42:33.548Z,27.22
2018-07-16T10:43:33.800Z,27.22
2018-07-16T10:44:33.813Z,27.21
2018-07-16T10:45:33.562Z,27.24
2018-07-16T10:46:33.823Z,27.22
2018-07-16T10:47:33.814Z,27.24
2018-07-16T10:48:33.819Z,27.25
2018-07-16T10:49:33.937Z,27.31
2018-07-16T10:50:33.827Z,27.29
2018-07-16T10:51:33.832Z,27.29
2018-07-16T10:52:33.834Z,27.34
2018-07-16T10:53:33.867Z,27.4
2018-07-16T10:54:33.840Z,27.31
2018-07-16T10:55:33.841Z,27.34
2018-07-16T10:56:33.859Z,27.22
2018-07-16T10:57:33.854Z,27.28
2018-07-16T10:58:33.850Z,27.29
2018-07-16T10:59:33.866Z,27.32
2018-07-16T11:00:33.875Z,27.32
2018-07-16T11:01:33.866Z,27.28
2018-07-16T11:02:33.866Z,27.29
2018-07-16T11:03:33.885Z,27.44
2018-07-16T11:04:33.879Z,27.49
2018-07-16T11:05:34.098Z,27.6
2018-07-16T11:06:33.878Z,27.62
2018-07-16T11:07:33.883Z,27.63
2018-07-16T11:08:33.881Z,27.63
2018-07-16T11:09:33.899Z,27.51
2018-07-16T11:10:33.887Z,27.4
2018-07-16T11:11:33.891Z,27.39
2018-07-16T11:12:33.908Z,27.46
2018-07-16T11:13:33.909Z,27.39
2018-07-16T11:14:33.655Z,27.37
2018-07-16T11:15:33.906Z,27.41
2018-07-16T11:16:33.908Z,27.46
2018-07-16T11:17:33.913Z,27.32
2018-07-16T11:18:33.925Z,27.27
2018-07-16T11:19:33.670Z,27.29
2018-07-16T11:20:33.695Z,27.28
2018-07-16T11:21:33.955Z,27.28
2018-07-16T11:22:34.186Z,27.14
2018-07-16T11:23:33.938Z,27.19
2018-07-16T11:24:33.940Z,27.13
2018-07-16T11:25:33.945Z,27.12
2018-07-16T11:26:33.946Z,26.97
2018-07-16T11:27:33.690Z,27.03
2018-07-16T11:28:33.954Z,27.14
2018-07-16T11:29:33.951Z,27.12
2018-07-16T11:30:33.965Z,27.13
2018-07-16T11:31:33.957Z,27.06
2018-07-16T11:32:33.963Z,27.1
2018-07-16T11:33:34.013Z,27.13
2018-07-16T11:34:33.968Z,27.25
2018-07-16T11:35:34.304Z,27.22
2018-07-16T11:36:33.971Z,27.29
2018-07-16T11:37:33.979Z,27.31
2018-07-16T11:38:33.983Z,27.28
2018-07-16T11:39:34.009Z,27.41
2018-07-16T11:40:33.989Z,27.47
2018-07-16T11:41:33.732Z,27.51
2018-07-16T11:42:33.993Z,27.63
2018-07-16T11:43:33.997Z,27.63
2018-07-16T11:44:34.001Z,27.65
2018-07-16T11:45:34.005Z,27.74
2018-07-16T11:46:34.002Z,27.72
2018-07-16T11:47:33.760Z,27.79
2018-07-16T11:48:33.797Z,27.87
2018-07-16T11:49:33.771Z,27.77
2018-07-16T11:50:34.034Z,27.78
2018-07-16T11:51:33.765Z,27.84
2018-07-16T11:52:33.766Z,27.92
2018-07-16T11:53:34.026Z,27.88
2018-07-16T11:54:34.035Z,27.9
2018-07-16T11:55:34.035Z,27.85
2018-07-16T11:56:33.782Z,27.84
2018-07-16T11:57:33.788Z,27.84
2018-07-16T11:58:34.040Z,27.81
2018-07-16T11:59:34.045Z,27.7
2018-07-16T12:00:34.049Z,27.78
2018-07-16T12:01:34.065Z,27.84
2018-07-16T12:02:33.804Z,27.81
2018-07-16T12:03:34.441Z,27.82
2018-07-16T12:04:34.060Z,27.72
2018-07-16T12:05:34.077Z,27.81
2018-07-16T12:06:34.073Z,27.81
2018-07-16T12:07:34.068Z,27.87
2018-07-16T12:08:34.071Z,27.82
2018-07-16T12:09:34.073Z,27.74
2018-07-16T12:10:34.087Z,27.69
2018-07-16T12:11:34.081Z,27.72
2018-07-16T12:12:34.248Z,27.78
2018-07-16T12:13:34.088Z,27.72
2018-07-16T12:14:33.845Z,27.79
2018-07-16T12:15:33.843Z,27.78
2018-07-16T12:16:33.845Z,27.79
2018-07-16T12:17:34.101Z,27.82
2018-07-16T12:18:34.108Z,27.81
2018-07-16T12:19:33.913Z,27.81
2018-07-16T12:20:34.037Z,27.88
2018-07-16T12:21:33.861Z,27.81
2018-07-16T12:22:34.114Z,27.81
2018-07-16T12:23:33.872Z,27.84
2018-07-16T12:24:34.123Z,27.88
2018-07-16T12:25:34.136Z,27.92
2018-07-16T12:26:34.131Z,27.87
2018-07-16T12:27:33.888Z,27.88
2018-07-16T12:28:34.141Z,27.81
2018-07-16T12:29:34.154Z,27.81
2018-07-16T12:30:34.149Z,27.84
2018-07-16T12:31:34.162Z,27.93
2018-07-16T12:32:34.160Z,27.92
2018-07-16T12:33:34.164Z,28.06
2018-07-16T12:34:33.909Z,27.96
2018-07-16T12:35:33.921Z,28.04
2018-07-16T12:36:34.167Z,28.04
2018-07-16T12:37:34.172Z,28.06
2018-07-16T12:38:34.181Z,28.06
2018-07-16T12:39:33.929Z,27.93
2018-07-16T12:40:34.191Z,27.87
2018-07-16T12:41:34.756Z,27.88
2018-07-16T12:42:33.931Z,27.92
2018-07-16T12:43:34.219Z,27.93
2018-07-16T12:44:33.952Z,27.97
2018-07-16T12:45:33.984Z,28.07
2018-07-16T12:46:34.247Z,28.03
2018-07-16T12:47:34.221Z,28
2018-07-16T12:48:34.224Z,28.02
2018-07-16T12:49:34.210Z,27.99
2018-07-16T12:50:34.215Z,28
2018-07-16T12:51:33.970Z,28.06
2018-07-16T12:52:33.965Z,28.06
2018-07-16T12:53:33.716Z,28.04
2018-07-16T12:54:33.972Z,28.03
2018-07-16T12:55:34.546Z,28.03
2018-07-16T12:56:34.237Z,27.94